createdAt,value
2019-05-07T00:01:38.216Z,7.60
2019-05-07T00:04:08.301Z,12.97
2019-05-07T00:06:38.350Z,9.10
2019-05-07T00:09:09.614Z,7.87
2019-05-07T00:11:39.683Z,11.43
2019-05-07T00:14:09.737Z,13.10
2019-05-07T00:16:42.175Z,12.05
2019-05-07T00:19:13.009Z,12.25
2019-05-07T00:24:13.589Z,11.97
2019-05-07T00:26:43.653Z,10.82
2019-05-07T00:29:13.825Z,17.77
2019-05-07T00:31:43.984Z,14.05
2019-05-07T00:34:15.171Z,10.93
2019-05-07T00:36:46.785Z,8.13
2019-05-07T00:42:04.226Z,8.10
2019-05-07T00:44:35.955Z,11.80
2019-05-07T00:47:06.011Z,7.25
2019-05-07T00:49:36.148Z,9.40
2019-05-07T00:52:06.328Z,8.43
2019-05-07T00:54:36.514Z,9.20
2019-05-07T00:57:06.764Z,8.70
2019-05-07T00:59:36.941Z,10.65
2019-05-07T01:02:07.294Z,11.57
2019-05-07T01:04:37.315Z,9.93
2019-05-07T01:07:07.482Z,8.18
2019-05-07T01:09:37.545Z,12.13
2019-05-07T01:12:07.725Z,12.58
2019-05-07T01:14:37.925Z,10.25
2019-05-07T01:17:08.109Z,9.30
2019-05-07T01:19:38.244Z,11.63
2019-05-07T01:22:08.319Z,10.75
2019-05-07T01:24:38.517Z,9.25
2019-05-07T01:27:08.694Z,10.85
2019-05-07T01:29:38.777Z,11.25
2019-05-07T01:32:12.580Z,14.65
2019-05-07T01:34:43.763Z,10.48
2019-05-07T01:37:13.975Z,10.90
2019-05-07T01:39:44.158Z,12.73
2019-05-07T01:42:14.357Z,11.30
2019-05-07T01:44:44.497Z,9.63
2019-05-07T01:47:14.689Z,13.35
2019-05-07T01:49:44.865Z,7.67
2019-05-07T01:52:15.031Z,11.12
2019-05-07T01:54:47.297Z,13.98
2019-05-07T01:57:16.912Z,13.83
2019-05-07T01:59:48.015Z,13.10
2019-05-07T02:02:28.849Z,10.03
2019-05-07T02:05:03.543Z,10.08
2019-05-07T02:07:36.184Z,8.73
2019-05-07T02:10:17.102Z,9.05
2019-05-07T02:12:47.409Z,6.50
2019-05-07T02:15:17.451Z,9.28
2019-05-07T02:17:47.534Z,10.43
2019-05-07T02:20:17.592Z,8.58
2019-05-07T02:22:47.745Z,13.80
2019-05-07T02:25:17.917Z,8.48
2019-05-07T02:27:47.977Z,8.23
2019-05-07T02:30:18.154Z,9.20
2019-05-07T02:32:48.344Z,14.60
2019-05-07T02:35:18.376Z,7.15
2019-05-07T02:37:55.499Z,6.85
2019-05-07T02:40:26.103Z,8.60
2019-05-07T02:42:56.125Z,8.83
2019-05-07T02:45:27.722Z,7.65
2019-05-07T02:47:57.876Z,6.15
2019-05-07T02:50:38.721Z,9.95
2019-05-07T02:53:17.686Z,6.15
2019-05-07T02:55:52.860Z,10.03
2019-05-07T02:58:24.024Z,4.85
2019-05-07T03:00:54.177Z,11.75
2019-05-07T03:03:24.830Z,6.28
2019-05-07T03:05:55.150Z,5.92
2019-05-07T03:08:27.550Z,6.33
2019-05-07T03:10:56.903Z,5.72
2019-05-07T03:13:27.062Z,7.35
2019-05-07T03:15:57.234Z,9.80
2019-05-07T03:18:27.431Z,8.00
2019-05-07T03:20:59.154Z,11.57
2019-05-07T03:23:33.769Z,7.15
2019-05-07T03:26:13.383Z,7.22
2019-05-07T03:28:58.789Z,9.53
2019-05-07T03:31:35.653Z,7.08
2019-05-07T03:34:07.430Z,7.42
2019-05-07T03:36:48.195Z,5.03
2019-05-07T03:39:18.012Z,7.97
2019-05-07T03:41:48.223Z,7.00
2019-05-07T03:44:19.879Z,6.37
2019-05-07T03:47:00.634Z,7.78
2019-05-07T03:49:29.087Z,12.73
2019-05-07T03:51:59.163Z,8.93
2019-05-07T03:54:29.377Z,17.60
2019-05-07T03:57:07.462Z,10.38
2019-05-07T03:59:33.959Z,6.87
2019-05-07T04:02:03.459Z,8.10
2019-05-07T04:04:33.846Z,5.50
2019-05-07T04:07:03.987Z,12.63
2019-05-07T04:09:34.059Z,6.87
2019-05-07T04:12:04.307Z,9.53
2019-05-07T04:14:34.892Z,9.00
2019-05-07T04:17:14.507Z,12.63
2019-05-07T04:19:37.919Z,5.03
2019-05-07T04:22:07.963Z,5.55
2019-05-07T04:24:42.644Z,8.78
2019-05-07T04:27:25.295Z,7.08
2019-05-07T04:29:55.332Z,8.18
2019-05-07T04:32:26.995Z,7.92
2019-05-07T04:35:03.938Z,9.25
2019-05-07T04:37:33.473Z,13.45
2019-05-07T04:40:03.650Z,6.92
2019-05-07T04:42:33.734Z,16.45
2019-05-07T04:45:08.141Z,12.95
2019-05-07T04:47:44.280Z,12.93
2019-05-07T04:55:13.968Z,31.87
2019-05-07T04:57:44.140Z,23.83
2019-05-07T05:00:14.598Z,12.07
2019-05-07T05:02:49.120Z,26.70
2019-05-07T05:05:19.978Z,28.75
2019-05-07T05:07:50.053Z,20.35
2019-05-07T05:10:22.689Z,16.93
2019-05-07T05:15:22.740Z,21.87
2019-05-07T05:17:54.037Z,26.62
2019-05-07T05:20:38.123Z,23.22
2019-05-07T05:23:11.988Z,39.65
2019-05-07T05:25:43.240Z,32.25
2019-05-07T05:30:52.772Z,37.35
2019-05-07T05:33:23.583Z,28.65
2019-05-07T05:35:54.063Z,21.83
2019-05-07T05:38:24.158Z,15.80
2019-05-07T05:40:54.221Z,21.77
2019-05-07T05:43:25.873Z,13.18
2019-05-07T05:45:58.597Z,10.85
2019-05-07T05:48:28.711Z,14.70
2019-05-07T05:51:15.302Z,21.35
2019-05-07T05:53:55.969Z,15.78
2019-05-07T05:56:33.564Z,18.75
2019-05-07T05:59:05.323Z,18.00
2019-05-07T06:04:29.087Z,17.20
2019-05-07T06:07:08.768Z,16.50
2019-05-07T06:09:43.125Z,17.17
2019-05-07T06:12:32.808Z,26.90
2019-05-07T06:15:13.036Z,16.12
2019-05-07T06:17:47.673Z,17.07
2019-05-07T06:20:25.029Z,20.08
2019-05-07T06:23:13.017Z,18.60
2019-05-07T06:25:44.979Z,19.45
2019-05-07T06:28:15.181Z,18.92
2019-05-07T06:30:46.486Z,18.92
2019-05-07T06:33:16.583Z,8.68
2019-05-07T06:35:46.901Z,4.15
2019-05-07T06:38:16.981Z,9.13
2019-05-07T06:40:51.991Z,13.50
2019-05-07T06:43:32.521Z,10.65
2019-05-07T06:46:04.181Z,48.30
2019-05-07T06:48:41.778Z,16.67
2019-05-07T06:51:06.206Z,34.10
2019-05-07T06:53:36.309Z,16.12
2019-05-07T06:56:06.500Z,15.18
2019-05-07T06:58:53.322Z,13.98
2019-05-07T07:01:27.944Z,11.30
2019-05-07T07:04:02.929Z,18.37
2019-05-07T07:06:52.326Z,7.58
2019-05-07T07:09:42.324Z,11.63
2019-05-07T07:12:19.358Z,17.42
2019-05-07T07:14:51.683Z,15.95
2019-05-07T07:17:22.298Z,11.95
2019-05-07T07:22:22.453Z,6.25
2019-05-07T07:24:53.107Z,16.82
2019-05-07T07:27:23.554Z,14.00
2019-05-07T07:29:55.284Z,8.33
2019-05-07T07:32:33.173Z,20.55
2019-05-07T07:35:04.046Z,11.28
2019-05-07T07:37:35.784Z,6.25
2019-05-07T07:40:17.944Z,6.03
2019-05-07T07:42:48.181Z,5.47
2019-05-07T07:47:49.302Z,10.98
2019-05-07T07:50:19.516Z,162.65
2019-05-07T07:52:49.604Z,8.53
2019-05-07T07:55:22.312Z,5.30
2019-05-07T07:57:54.286Z,8.68
2019-05-07T08:00:35.007Z,45.15
2019-05-07T08:03:06.757Z,19.93
2019-05-07T08:05:36.832Z,7.62
2019-05-07T08:08:06.838Z,13.70
2019-05-07T08:10:37.028Z,12.75
2019-05-07T08:13:07.045Z,7.37
2019-05-07T08:15:37.271Z,10.50
2019-05-07T08:18:07.326Z,13.03
2019-05-07T08:20:37.511Z,10.20
2019-05-07T08:23:07.629Z,25.17
2019-05-07T08:25:52.234Z,63.25
2019-05-07T08:28:23.150Z,17.52
2019-05-07T08:30:55.187Z,7.37
2019-05-07T08:33:32.100Z,8.45
2019-05-07T08:36:14.673Z,11.68
2019-05-07T08:38:52.711Z,17.95
2019-05-07T08:41:23.563Z,15.93
2019-05-07T08:44:08.217Z,13.70
2019-05-07T08:46:34.610Z,40.17
2019-05-07T08:49:05.898Z,17.50
2019-05-07T08:54:05.376Z,18.10
2019-05-07T08:56:36.155Z,10.08
2019-05-07T08:59:06.679Z,38.17
2019-05-07T09:01:37.952Z,13.85
2019-05-07T09:06:37.360Z,7.15
2019-05-07T09:09:08.885Z,21.30
2019-05-07T09:11:38.955Z,15.20
2019-05-07T09:14:09.540Z,8.80
2019-05-07T09:16:39.597Z,10.05
2019-05-07T09:19:09.777Z,10.65
2019-05-07T09:21:42.830Z,15.03
2019-05-07T09:24:12.819Z,46.80
2019-05-07T09:26:52.253Z,38.20
2019-05-07T09:29:32.469Z,18.92
2019-05-07T09:32:22.746Z,19.10
2019-05-07T09:34:54.766Z,12.25
2019-05-07T09:37:32.601Z,12.95
2019-05-07T09:40:03.384Z,7.53
2019-05-07T09:42:33.589Z,25.77
2019-05-07T09:45:05.073Z,14.33
2019-05-07T09:47:35.060Z,8.13
2019-05-07T09:50:08.091Z,7.83
2019-05-07T09:52:37.638Z,14.00
2019-05-07T09:55:16.696Z,12.10
2019-05-07T09:57:39.457Z,14.15
2019-05-07T10:00:12.353Z,9.53
2019-05-07T10:02:42.778Z,7.97
2019-05-07T10:05:13.343Z,13.22
2019-05-07T10:07:43.450Z,11.25
2019-05-07T10:10:13.531Z,11.80
2019-05-07T10:13:01.878Z,7.60
2019-05-07T10:15:33.214Z,19.90
2019-05-07T10:18:04.927Z,10.98
2019-05-07T10:20:34.988Z,12.82
2019-05-07T10:23:05.129Z,16.60
2019-05-07T10:25:38.320Z,14.47
2019-05-07T10:28:09.526Z,11.63
2019-05-07T10:30:39.710Z,14.85
2019-05-07T10:33:09.875Z,11.10
2019-05-07T10:35:39.913Z,15.30
2019-05-07T10:38:09.976Z,12.45
2019-05-07T10:40:40.292Z,6.53
2019-05-07T10:43:10.288Z,12.33
2019-05-07T10:45:57.246Z,11.20
2019-05-07T10:48:40.983Z,12.18
2019-05-07T10:51:11.203Z,19.95
2019-05-07T10:53:42.425Z,11.97
2019-05-07T10:56:13.898Z,13.32
2019-05-07T10:58:44.074Z,17.17
2019-05-07T11:01:16.318Z,13.62
2019-05-07T11:03:46.424Z,14.47
2019-05-07T11:06:16.538Z,25.85
2019-05-07T11:08:46.622Z,15.20
2019-05-07T11:11:16.695Z,13.45
2019-05-07T11:13:46.744Z,12.60
2019-05-07T11:16:18.446Z,16.32
2019-05-07T11:18:51.808Z,20.08
2019-05-07T11:21:32.988Z,9.80
2019-05-07T11:24:03.239Z,11.88
2019-05-07T11:29:04.448Z,11.83
2019-05-07T11:31:34.614Z,19.20
2019-05-07T11:34:04.750Z,10.95
2019-05-07T11:36:34.890Z,18.30
2019-05-07T11:39:06.148Z,15.25
2019-05-07T11:41:44.585Z,89.87
2019-05-07T11:44:16.216Z,25.60
2019-05-07T11:47:04.454Z,15.93
2019-05-07T11:49:38.988Z,14.33
2019-05-07T11:52:12.243Z,17.67
2019-05-07T11:54:42.390Z,16.05
2019-05-07T11:57:12.593Z,11.55
2019-05-07T11:59:42.766Z,9.33
2019-05-07T12:02:13.064Z,20.02
2019-05-07T12:04:43.235Z,14.03
2019-05-07T12:07:13.574Z,15.53
2019-05-07T12:09:43.851Z,15.90
2019-05-07T12:12:14.083Z,11.90
2019-05-07T12:14:44.139Z,18.15
2019-05-07T12:17:14.057Z,12.93
2019-05-07T12:19:44.141Z,16.42
2019-05-07T12:22:15.816Z,12.75
2019-05-07T12:24:45.853Z,16.37
2019-05-07T12:27:15.802Z,17.70
2019-05-07T12:29:45.747Z,23.25
2019-05-07T12:32:21.969Z,18.82
2019-05-07T12:34:53.274Z,26.02
2019-05-07T12:37:23.154Z,22.22
2019-05-07T12:39:53.105Z,26.65
2019-05-07T12:42:23.165Z,19.85
2019-05-07T12:44:53.245Z,19.82
2019-05-07T12:47:23.328Z,17.87
2019-05-07T12:49:53.402Z,33.88
2019-05-07T12:52:25.015Z,18.07
2019-05-07T12:55:03.352Z,21.80
2019-05-07T12:57:34.578Z,22.90
2019-05-07T13:00:24.097Z,41.80
2019-05-07T13:03:12.732Z,14.23
2019-05-07T13:05:44.204Z,15.90
2019-05-07T13:08:15.546Z,15.90
2019-05-07T13:10:45.642Z,14.45
2019-05-07T13:13:15.557Z,17.92
2019-05-07T13:15:45.508Z,23.27
2019-05-07T13:18:15.492Z,16.12
2019-05-07T13:20:45.420Z,19.10
2019-05-07T13:23:15.335Z,15.90
2019-05-07T13:25:45.257Z,27.70
2019-05-07T13:28:15.357Z,12.90
2019-05-07T13:30:45.442Z,35.10
2019-05-07T13:33:16.755Z,14.25
2019-05-07T13:35:47.010Z,15.65
2019-05-07T13:38:21.362Z,14.40
2019-05-07T13:41:03.769Z,15.90
2019-05-07T13:43:35.321Z,17.55
2019-05-07T13:48:45.645Z,39.65
2019-05-07T13:51:15.244Z,26.48
2019-05-07T13:53:45.220Z,23.90
2019-05-07T13:56:16.554Z,37.05
2019-05-07T13:58:46.610Z,35.40
2019-05-07T14:01:23.817Z,32.50
2019-05-07T14:03:53.811Z,34.70
2019-05-07T14:06:38.851Z,32.45
2019-05-07T14:09:15.019Z,28.62
2019-05-07T14:11:44.994Z,21.93
2019-05-07T14:14:14.960Z,26.35
2019-05-07T14:16:45.201Z,17.25
2019-05-07T14:19:16.485Z,23.50
2019-05-07T14:21:46.427Z,28.62
2019-05-07T14:24:16.402Z,29.30
2019-05-07T14:26:46.388Z,33.30
2019-05-07T14:29:16.677Z,25.72
2019-05-07T14:31:48.343Z,22.25
2019-05-07T14:34:22.564Z,21.80
2019-05-07T14:37:12.784Z,29.82
2019-05-07T14:39:42.567Z,31.95
2019-05-07T14:42:14.391Z,31.57
2019-05-07T14:47:22.083Z,32.88
2019-05-07T14:49:52.884Z,15.93
2019-05-07T14:52:32.211Z,24.05
2019-05-07T14:57:23.897Z,20.90
2019-05-07T14:59:53.946Z,24.90
2019-05-07T15:02:24.052Z,23.07
2019-05-07T15:04:54.072Z,39.53
2019-05-07T15:07:24.026Z,24.02
2019-05-07T15:09:54.000Z,22.67
2019-05-07T15:12:24.092Z,19.27
2019-05-07T15:14:54.206Z,12.23
2019-05-07T15:17:25.866Z,45.28
2019-05-07T15:22:49.454Z,36.68
2019-05-07T15:25:16.575Z,23.40
2019-05-07T15:27:49.813Z,19.85
2019-05-07T15:30:21.962Z,14.63
2019-05-07T15:32:52.203Z,19.48
2019-05-07T15:35:22.366Z,28.00
2019-05-07T15:37:52.476Z,17.82
2019-05-07T15:40:22.726Z,16.90
2019-05-07T15:42:52.797Z,14.05
2019-05-07T15:45:22.909Z,15.25
2019-05-07T15:47:54.612Z,27.55
2019-05-07T15:50:27.606Z,23.75
2019-05-07T15:53:08.058Z,16.23
2019-05-07T15:55:37.990Z,27.10
2019-05-07T15:58:07.891Z,23.00
2019-05-07T16:00:38.327Z,24.43
2019-05-07T16:03:18.939Z,31.97
2019-05-07T16:05:48.910Z,24.87
2019-05-07T16:08:19.420Z,14.50
2019-05-07T16:10:49.478Z,23.27
2019-05-07T16:13:33.251Z,15.08
2019-05-07T16:16:03.197Z,18.95
2019-05-07T16:18:52.437Z,18.80
2019-05-07T16:21:22.631Z,24.77
2019-05-07T16:23:54.824Z,33.13
2019-05-07T16:26:24.405Z,18.75
2019-05-07T16:28:54.444Z,22.07
2019-05-07T16:31:24.777Z,20.62
2019-05-07T16:33:55.063Z,31.37
2019-05-07T16:36:25.132Z,27.45
2019-05-07T16:38:55.121Z,24.23
2019-05-07T16:41:33.737Z,24.45
2019-05-07T16:44:25.823Z,27.60
2019-05-07T16:46:55.818Z,26.05
2019-05-07T16:49:25.806Z,25.32
2019-05-07T16:51:55.799Z,20.60
2019-05-07T16:54:25.858Z,28.07
2019-05-07T16:57:13.799Z,21.20
2019-05-07T16:59:43.833Z,16.82
2019-05-07T17:02:24.260Z,22.20
2019-05-07T17:05:12.325Z,16.67
2019-05-07T17:07:59.943Z,14.40
2019-05-07T17:10:31.773Z,22.22
2019-05-07T17:15:34.169Z,18.15
2019-05-07T17:18:05.000Z,16.75
2019-05-07T17:20:35.006Z,25.88
2019-05-07T17:23:07.019Z,13.07
2019-05-07T17:25:37.305Z,15.17
2019-05-07T17:28:08.343Z,20.88
2019-05-07T17:30:38.924Z,22.55
2019-05-07T17:33:12.634Z,36.50
2019-05-07T17:35:42.475Z,25.75
2019-05-07T17:38:12.960Z,19.40
2019-05-07T17:40:43.453Z,24.80
2019-05-07T17:43:13.519Z,19.07
2019-05-07T17:45:43.785Z,20.27
2019-05-07T17:48:13.838Z,13.22
2019-05-07T17:51:02.080Z,22.17
2019-05-07T17:53:32.128Z,16.97
2019-05-07T17:56:02.267Z,19.27
2019-05-07T17:58:33.500Z,24.63
2019-05-07T18:01:04.585Z,20.35
2019-05-07T18:03:36.582Z,23.50
2019-05-07T18:06:06.748Z,24.27
2019-05-07T18:08:36.919Z,29.02
2019-05-07T18:11:20.199Z,17.12
2019-05-07T18:13:38.615Z,21.55
2019-05-07T18:16:15.932Z,25.82
2019-05-07T18:18:46.069Z,24.55
2019-05-07T18:21:16.626Z,30.12
2019-05-07T18:23:46.621Z,25.25
2019-05-07T18:26:28.090Z,28.30
2019-05-07T18:28:48.936Z,34.33
2019-05-07T18:31:22.182Z,37.95
2019-05-07T18:33:54.000Z,26.87
2019-05-07T18:36:24.091Z,36.93
2019-05-07T18:38:54.152Z,27.67
2019-05-07T18:41:24.819Z,47.53
2019-05-07T18:43:54.824Z,44.55
2019-05-07T18:46:25.821Z,48.07
2019-05-07T18:48:55.726Z,51.63
2019-05-07T18:51:25.891Z,46.40
2019-05-07T18:53:55.984Z,45.73
2019-05-07T18:56:26.011Z,47.20
2019-05-07T18:58:56.160Z,49.08
2019-05-07T19:01:28.090Z,48.33
2019-05-07T19:03:58.249Z,49.80
2019-05-07T19:06:28.196Z,56.77
2019-05-07T19:08:58.291Z,54.40
2019-05-07T19:11:28.403Z,60.15
2019-05-07T19:13:58.546Z,50.83
2019-05-07T19:16:28.633Z,53.50
2019-05-07T19:18:58.713Z,54.13
2019-05-07T19:21:28.870Z,54.30
2019-05-07T19:23:58.883Z,58.33
2019-05-07T19:26:29.038Z,57.62
2019-05-07T19:28:59.013Z,48.45
2019-05-07T19:31:29.039Z,48.90
2019-05-07T19:33:59.197Z,55.63
2019-05-07T19:36:29.202Z,58.33
2019-05-07T19:38:59.285Z,69.82
2019-05-07T19:41:29.380Z,60.78
2019-05-07T19:43:59.516Z,63.63
2019-05-07T19:46:29.528Z,65.42
2019-05-07T19:48:59.460Z,60.85
2019-05-07T19:51:29.538Z,64.60
2019-05-07T19:54:01.944Z,62.40
2019-05-07T19:56:32.386Z,71.75
2019-05-07T19:59:04.452Z,64.65
2019-05-07T20:01:36.210Z,73.28
2019-05-07T20:04:06.288Z,74.32
2019-05-07T20:06:36.364Z,86.00
2019-05-07T20:09:12.450Z,87.35
2019-05-07T20:11:45.952Z,91.53
2019-05-07T20:14:16.443Z,97.55
2019-05-07T20:16:48.624Z,101.72
2019-05-07T20:19:18.785Z,111.57
2019-05-07T20:21:49.431Z,102.72
2019-05-07T20:24:21.796Z,95.67
2019-05-07T20:26:52.701Z,84.03
2019-05-07T20:31:53.356Z,74.90
2019-05-07T20:34:23.679Z,84.95
2019-05-07T20:36:53.676Z,82.00
2019-05-07T20:39:23.622Z,72.82
2019-05-07T20:41:53.674Z,91.05
2019-05-07T20:44:23.803Z,87.25
2019-05-07T20:46:53.865Z,80.62
2019-05-07T20:49:23.868Z,68.70
2019-05-07T20:51:53.939Z,47.53
2019-05-07T20:54:28.454Z,59.50
2019-05-07T20:57:06.169Z,48.30
2019-05-07T20:59:36.277Z,43.80
2019-05-07T21:02:06.407Z,43.00
2019-05-07T21:04:36.666Z,35.15
2019-05-07T21:07:06.882Z,29.60
2019-05-07T21:09:36.963Z,26.48
2019-05-07T21:12:07.141Z,28.10
2019-05-07T21:14:37.355Z,31.12
2019-05-07T21:17:07.616Z,33.90
2019-05-07T21:19:37.721Z,27.45
2019-05-07T21:22:07.934Z,28.62
2019-05-07T21:24:38.028Z,32.38
2019-05-07T21:27:08.234Z,36.60
2019-05-07T21:29:38.274Z,30.70
2019-05-07T21:32:08.480Z,27.15
2019-05-07T21:34:38.540Z,29.63
2019-05-07T21:37:08.775Z,29.25
2019-05-07T21:39:38.871Z,29.72
2019-05-07T21:42:08.974Z,35.25
2019-05-07T21:44:39.214Z,39.33
2019-05-07T21:47:09.445Z,26.02
2019-05-07T21:49:39.529Z,21.60
2019-05-07T21:52:09.567Z,28.73
2019-05-07T21:54:45.439Z,24.30
2019-05-07T21:57:22.044Z,26.02
2019-05-07T21:59:55.020Z,34.50
2019-05-07T22:02:25.692Z,39.50
2019-05-07T22:04:55.795Z,41.80
2019-05-07T22:07:25.992Z,46.75
2019-05-07T22:09:56.059Z,41.53
2019-05-07T22:12:26.123Z,44.77
2019-05-07T22:14:56.310Z,44.83
2019-05-07T22:17:26.522Z,46.18
2019-05-07T22:19:56.780Z,38.63
2019-05-07T22:22:26.884Z,45.52
2019-05-07T22:24:57.582Z,46.63
2019-05-07T22:27:29.316Z,42.00
2019-05-07T22:29:59.429Z,40.10
2019-05-07T22:32:37.289Z,34.03
2019-05-07T22:35:08.966Z,38.10
2019-05-07T22:37:40.707Z,32.45
2019-05-07T22:40:12.461Z,34.98
2019-05-07T22:42:44.075Z,25.10
2019-05-07T22:45:14.364Z,24.25
2019-05-07T22:47:44.614Z,24.67
2019-05-07T22:50:15.608Z,25.80
2019-05-07T22:52:45.785Z,24.93
2019-05-07T22:55:15.887Z,21.15
2019-05-07T22:57:59.689Z,21.17
2019-05-07T23:00:37.324Z,22.60
2019-05-07T23:03:07.481Z,16.20
2019-05-07T23:05:37.631Z,18.50
2019-05-07T23:08:07.829Z,18.52
2019-05-07T23:10:37.893Z,24.95
2019-05-07T23:13:08.117Z,21.37
2019-05-07T23:15:38.223Z,28.73
2019-05-07T23:18:08.291Z,20.30
2019-05-07T23:20:38.436Z,25.32
2019-05-07T23:23:08.643Z,19.92
2019-05-07T23:25:38.694Z,17.77
2019-05-07T23:28:08.902Z,21.65
2019-05-07T23:30:39.063Z,24.98
2019-05-07T23:33:11.864Z,24.75
2019-05-07T23:35:42.181Z,29.42
2019-05-07T23:38:15.777Z,30.45
2019-05-07T23:41:04.110Z,54.77
2019-05-07T23:43:34.319Z,72.67
2019-05-07T23:46:04.540Z,68.70
2019-05-07T23:48:34.774Z,74.82
2019-05-07T23:51:04.943Z,75.00
2019-05-07T23:53:35.103Z,79.47
2019-05-07T23:56:05.148Z,70.03
2019-05-07T23:58:35.228Z,74.90
